Orlando, FL (32818)

2:55 PM EDT on September 03, 2015 (GMT -0400)
Lake Rose | | Change Station
CLOSE
Current Station
Personal Weather Station
Location: Orlando, FL
Elevation: 118 ft
Nearby Weather Stations

Elev 118 ft 28.54 °N, 81.50 °W | Updated 4 seconds ago

Partly Cloudy
Partly Cloudy
87.8 °F
Feels Like 99 °F
N
0.0
Wind Variable Wind from North
Gusts 0.0 mph

Today
High -- | Low -- °F
--% Chance of Precip.
Yesterday
High -- | Low -- °F
Precip. -- in
7:05 AM 7:45 PM
Waning Gibbous, 68% visible
Pressure 29.96 in
Visibility 10.0 miles
Clouds Scattered Clouds 5000 ft
Heat Index 99 °F
Dew Point 76 °F
Humidity 69%
Rainfall 0.00 in
Snow Depth Not available.
UV 10 out of 12
Pollen 7.00 out of 12
Air Quality Not available.
Flu Activity Not available.
METAR KORL 031853Z 28009KT 10SM SCT050 32/24 A2995 RMK AO2 LTG DSNT NE AND NW SLP143 T03220239
Pressure 29.96 in
Visibility 10.0 miles
Clouds Scattered Clouds 5000 ft
Heat Index 99 °F
Dew Point 76 °F
Humidity 69%
Rainfall 0.00 in
Snow Depth Not available.
UV 10 out of 12
Pollen 7.00 out of 12
Air Quality Not available.
Flu Activity Not available.
METAR KORL 031853Z 28009KT 10SM SCT050 32/24 A2995 RMK AO2 LTG DSNT NE AND NW SLP143 T03220239
Nowcast | as of 1:49 PM EDT on September 3, 2015

Isolated to scattered showers and storms will develop and move eastward around 10 to 15 mph across portions of the region into mid afternoon. Best chance for this activity will be from Lake County eastward toward Volusia County and also near the East Coast...south of Melbourne. Any storms that develop will produce dangerous cloud to ground lightning...gusty winds up to 35 to 40 mph and locally heavy rainfall. Additional details...including graphics are available online at: http://www.Srh.NOAA.Gov/mlb/blog.Php

×

10-Day Weather Forecast

×

Almanac

Astronomy

Sep. 03, 2015 Rise Set
Actual Time
Civil Twilight
Nautical Twilight
Astronomical Twilight
Moon
Length of Visible Light
Length of Day
Tomorrow will be .
, % of the Moon is Illuminated

Today's Extremes

State Highs State Lows

Community

WunderPhotos

Upload Photos

1,852,001 photos uploaded!

WunderBlogs® & News

Nearby

Air Quality

  Air Quality AQ Index Pollutant
Not available.

Snow Depth

Station Depth Elevation

Earthquake Activity

City Distance Mag. Time & Date
Minimum magnitude displayed is 2.5.

Coastal Water Temperatures

Place Temperature

Stations

Nearby Weather Stations

Station Location Temp. Windchill Dew Point Humidity Wind Precip. Elev Updated Type